Time;durP1;ratioP1;P1;durP2;ratioP2;P2;SDS_P1;SDS_P2;PMS_P1;PMS_P2;Temp;Humidity;BMP_temperature;BMP_pressure;BME280_temperature;BME280_humidity;BME280_pressure;Samples;Min_cycle;Max_cycle;Signal;HPM_P1;HPM_P2
2023/05/31 00:00:39;;;;;;;;;;;;;;;-140.72;100.00;52666.84;6217557;23;19949;-73
2023/05/31 00:03:04;;;;;;;;;;;;;;;-140.72;100.00;52707.41;6244190;23;19946;-72
2023/05/31 00:05:29;;;;;;;;;;;;;;;-140.72;100.00;52693.22;6217381;23;19912;-72
2023/05/31 00:07:55;;;;;;;;;;;;;;;-140.72;100.00;52713.50;6217777;23;19911;-72
2023/05/31 00:10:20;;;;;;;;;;;;;;;-140.72;100.00;52638.41;6217765;23;20284;-72
2023/05/31 00:12:45;;;;;;;;;;;;;;;-140.72;100.00;52683.06;6217380;23;20382;-72
2023/05/31 00:15:10;;;;;;;;;;;;;;;-140.72;100.00;52650.59;6217559;23;19919;-72
2023/05/31 00:17:36;;;;;;;;;;;;;;;-140.72;100.00;52687.13;6245313;23;20215;-72
2023/05/31 00:20:01;;;;;;;;;;;;;;;-140.72;100.00;52721.63;6245481;23;19912;-73
2023/05/31 00:22:27;;;;;;;;;;;;;;;-140.72;100.00;52679.00;6219109;23;19911;-73
2023/05/31 00:24:52;;;;;;;;;;;;;;;-140.72;100.00;52650.59;6216827;23;20251;-73
2023/05/31 00:27:17;;;;;;;;;;;;;;;-140.72;100.00;52691.19;6244063;23;19961;-73
2023/05/31 00:29:43;;;;;;;;;;;;;;;-140.72;100.00;52668.84;6217106;23;19922;-72
2023/05/31 00:32:09;;;;;;;;;;;;;;;-140.72;100.00;52711.47;6244081;23;19912;-73
2023/05/31 00:34:34;;;;;;;;;;;;;;;-140.72;100.00;52676.97;6217086;23;19912;-73
2023/05/31 00:37:00;;;;;;;;;;;;;;;-140.72;100.00;52703.34;6217844;23;19941;-73
2023/05/31 00:39:25;;;;;;;;;;;;;;;-140.72;100.00;52674.94;6223623;23;19921;-73
2023/05/31 00:41:50;;;;;;;;;;;;;;;-140.72;100.00;52691.19;6219342;23;19915;-73
2023/05/31 00:44:15;;;;;;;;;;;;;;;-140.72;100.00;52691.19;6224054;23;19911;-73
2023/05/31 00:46:42;;;;;;;;;;;;;;;-140.72;100.00;52685.09;6245792;23;20015;-73
2023/05/31 00:49:07;;;;;;;;;;;;;;;-140.72;100.00;52717.56;6245379;23;19969;-73
2023/05/31 00:51:33;;;;;;;;;;;;;;;-140.72;100.00;52697.28;6245942;23;19912;-72
2023/05/31 00:53:59;;;;;;;;;;;;;;;-140.72;100.00;52683.06;6217469;23;19990;-73
2023/05/31 00:56:25;;;;;;;;;;;;;;;-140.72;100.00;52664.81;6216975;23;20292;-73
2023/05/31 00:58:52;;;;;;;;;;;;;;;-140.72;100.00;52699.31;6216792;23;19951;-73
2023/05/31 01:01:18;;;;;;;;;;;;;;;-140.72;100.00;52689.16;6216881;23;20281;-73
2023/05/31 01:03:43;;;;;;;;;;;;;;;-140.72;100.00;52735.81;6216949;23;19962;-72
2023/05/31 01:06:09;;;;;;;;;;;;;;;-140.72;100.00;52699.31;6217012;23;19922;-72
2023/05/31 01:08:35;;;;;;;;;;;;;;;-140.72;100.00;52711.47;6215919;23;20381;-72
2023/05/31 01:11:06;;;;;;;;;;;;;;;-140.72;100.00;52723.66;6216761;23;19946;-72
2023/05/31 01:13:42;;;;;;;;;;;;;;;-140.72;100.00;52713.50;6243131;23;20006;-72
2023/05/31 01:16:11;;;;;;;;;;;;;;;-140.72;100.00;52717.56;6216541;23;19955;-72
2023/05/31 01:18:49;;;;;;;;;;;;;;;-140.72;100.00;52733.78;6243470;23;19970;-72
2023/05/31 01:21:16;;;;;;;;;;;;;;;-140.72;100.00;52681.03;6216121;23;20117;-72
2023/05/31 01:23:46;;;;;;;;;;;;;;;-140.72;100.00;52691.19;6215837;23;20269;-72
2023/05/31 01:26:30;;;;;;;;;;;;;;;-140.72;100.00;52705.38;6217131;23;19986;-72
2023/05/31 01:29:16;;;;;;;;;;;;;;;-140.72;100.00;52711.47;6243261;23;20018;-72
2023/05/31 01:31:45;;;;;;;;;;;;;;;-140.72;100.00;52666.84;6216437;23;19912;-72
2023/05/31 01:34:11;;;;;;;;;;;;;;;-140.72;100.00;52752.06;6243048;23;19911;-72
2023/05/31 01:36:36;;;;;;;;;;;;;;;-140.72;100.00;52713.50;6215884;23;20255;-72
2023/05/31 01:39:03;;;;;;;;;;;;;;;-140.72;100.00;52717.56;6243186;23;19923;-72
2023/05/31 01:41:28;;;;;;;;;;;;;;;-140.72;100.00;52731.75;6216843;23;19947;-72
2023/05/31 01:43:54;;;;;;;;;;;;;;;-140.72;100.00;52717.56;6242968;23;19965;-72
2023/05/31 01:46:19;;;;;;;;;;;;;;;-140.72;100.00;52715.53;6217079;23;19981;-72
2023/05/31 01:48:45;;;;;;;;;;;;;;;-140.72;100.00;52697.28;6243078;23;19966;-72
2023/05/31 01:51:11;;;;;;;;;;;;;;;-140.72;100.00;52719.59;6243335;23;19912;-72
2023/05/31 01:53:37;;;;;;;;;;;;;;;-140.72;100.00;52735.81;6243584;23;19911;-72
2023/05/31 01:56:02;;;;;;;;;;;;;;;-140.72;100.00;52729.75;6243999;23;19938;-72
2023/05/31 01:58:29;;;;;;;;;;;;;;;-140.72;100.00;52733.78;6243859;23;19919;-72
2023/05/31 02:01:03;;;;;;;;;;;;;;;-140.72;100.00;52731.75;6242944;23;19919;-72
2023/05/31 02:03:28;;;;;;;;;;;;;;;-140.72;100.00;52727.72;6218852;23;20258;-72
2023/05/31 02:06:03;;;;;;;;;;;;;;;-140.72;100.00;52758.16;6221053;23;19912;-74
2023/05/31 02:08:28;;;;;;;;;;;;;;;-140.72;100.00;52707.41;6217406;23;19919;-71
2023/05/31 02:10:53;;;;;;;;;;;;;;;-140.72;100.00;52703.34;6244186;23;20269;-72
2023/05/31 02:13:19;;;;;;;;;;;;;;;-140.72;100.00;52687.13;6243315;23;19911;-72
2023/05/31 02:15:45;;;;;;;;;;;;;;;-140.72;100.00;52748.00;6215786;23;19919;-72
2023/05/31 02:18:10;;;;;;;;;;;;;;;-140.72;100.00;52737.84;6243365;23;19942;-72
2023/05/31 02:20:35;;;;;;;;;;;;;;;-140.72;100.00;52739.88;6216237;23;19990;-71
2023/05/31 02:23:00;;;;;;;;;;;;;;;-140.72;100.00;52691.19;6216183;23;19919;-72
2023/05/31 02:25:26;;;;;;;;;;;;;;;-140.72;100.00;52737.84;6216223;23;19985;-72
2023/05/31 02:27:51;;;;;;;;;;;;;;;-140.72;100.00;52721.63;6216465;23;19911;-71
2023/05/31 02:30:16;;;;;;;;;;;;;;;-140.72;100.00;52754.09;6216877;23;19918;-72
2023/05/31 02:32:42;;;;;;;;;;;;;;;-140.72;100.00;52699.31;6224956;23;19959;-72
2023/05/31 02:35:08;;;;;;;;;;;;;;;-140.72;100.00;52731.75;6219294;23;19991;-72
2023/05/31 02:37:34;;;;;;;;;;;;;;;-140.72;100.00;52689.16;6218573;23;19912;-72
2023/05/31 02:40:00;;;;;;;;;;;;;;;-140.72;100.00;52699.31;6244921;23;19962;-72
2023/05/31 02:42:25;;;;;;;;;;;;;;;-140.72;100.00;52731.75;6245634;23;19956;-72
2023/05/31 02:44:50;;;;;;;;;;;;;;;-140.72;100.00;52721.63;6244798;23;19922;-72
2023/05/31 02:47:16;;;;;;;;;;;;;;;-140.72;100.00;52711.47;6245553;23;20005;-72
2023/05/31 02:49:41;;;;;;;;;;;;;;;-140.72;100.00;52731.75;6217973;23;19912;-72
2023/05/31 02:52:06;;;;;;;;;;;;;;;-140.72;100.00;52715.53;6218015;23;19915;-72
2023/05/31 02:54:32;;;;;;;;;;;;;;;-140.72;100.00;52711.47;6217590;23;19915;-72
2023/05/31 02:56:58;;;;;;;;;;;;;;;-140.72;100.00;52739.88;6244773;23;20005;-72
2023/05/31 02:59:24;;;;;;;;;;;;;;;-140.72;100.00;52758.16;6245282;23;19990;-72
2023/05/31 03:01:49;;;;;;;;;;;;;;;-140.72;100.00;52768.28;6218051;23;19993;-72
2023/05/31 03:04:15;;;;;;;;;;;;;;;-140.72;100.00;52711.47;6217286;23;20353;-72
2023/05/31 03:06:40;;;;;;;;;;;;;;;-140.72;100.00;52743.94;6217932;23;19915;-72
2023/05/31 03:09:05;;;;;;;;;;;;;;;-140.72;100.00;52721.63;6244670;23;19911;-72
2023/05/31 03:11:31;;;;;;;;;;;;;;;-140.72;100.00;52725.69;6218100;23;20022;-72
2023/05/31 03:13:56;;;;;;;;;;;;;;;-140.72;100.00;52719.59;6217313;23;20332;-72
2023/05/31 03:16:23;;;;;;;;;;;;;;;-140.72;100.00;52727.72;6244138;23;20339;-72
2023/05/31 03:18:48;;;;;;;;;;;;;;;-140.72;100.00;52709.44;6217471;23;19912;-72
2023/05/31 03:21:15;;;;;;;;;;;;;;;-140.72;100.00;52723.66;6244680;23;20012;-72
2023/05/31 03:23:40;;;;;;;;;;;;;;;-140.72;100.00;52727.72;6244864;23;19942;-72
2023/05/31 03:26:05;;;;;;;;;;;;;;;-140.72;100.00;52683.06;6244146;23;19919;-72
2023/05/31 03:28:30;;;;;;;;;;;;;;;-140.72;100.00;52725.69;6219455;23;19935;-72
2023/05/31 03:30:56;;;;;;;;;;;;;;;-140.72;100.00;52770.31;6247183;23;19912;-72
2023/05/31 03:33:22;;;;;;;;;;;;;;;-140.72;100.00;52768.28;6245480;23;19912;-72
2023/05/31 03:35:47;;;;;;;;;;;;;;;-140.72;100.00;52760.19;6244648;23;20013;-73
2023/05/31 03:38:12;;;;;;;;;;;;;;;-140.72;100.00;52731.75;6217806;23;19980;-73
2023/05/31 03:40:38;;;;;;;;;;;;;;;-140.72;100.00;52741.91;6244637;23;19916;-72
2023/05/31 03:43:03;;;;;;;;;;;;;;;-140.72;100.00;52735.81;6244423;23;19962;-72
2023/05/31 03:45:28;;;;;;;;;;;;;;;-140.72;100.00;52760.19;6244081;23;19916;-72
2023/05/31 03:47:53;;;;;;;;;;;;;;;-140.72;100.00;52725.69;6217460;23;19916;-72
2023/05/31 03:50:18;;;;;;;;;;;;;;;-140.72;100.00;52782.50;6218224;23;19911;-72
2023/05/31 03:52:44;;;;;;;;;;;;;;;-140.72;100.00;52741.91;6244753;23;19911;-72
2023/05/31 03:55:09;;;;;;;;;;;;;;;-140.72;100.00;52768.28;6244849;23;19911;-72
2023/05/31 03:57:35;;;;;;;;;;;;;;;-140.72;100.00;52772.34;6244657;23;20025;-72
2023/05/31 04:00:00;;;;;;;;;;;;;;;-140.72;100.00;52725.69;6244167;23;19911;-72
2023/05/31 04:02:26;;;;;;;;;;;;;;;-140.72;100.00;52760.19;6217235;23;19923;-72
2023/05/31 04:04:51;;;;;;;;;;;;;;;-140.72;100.00;52699.31;6217313;23;19912;-72
2023/05/31 04:07:16;;;;;;;;;;;;;;;-140.72;100.00;52750.03;6244038;23;19939;-72
2023/05/31 04:09:41;;;;;;;;;;;;;;;-140.72;100.00;52760.19;6216987;23;20347;-73
2023/05/31 04:12:07;;;;;;;;;;;;;;;-140.72;100.00;52737.84;6216973;23;20284;-72
2023/05/31 04:14:32;;;;;;;;;;;;;;;-140.72;100.00;52685.09;6243687;23;19915;-72
2023/05/31 04:16:57;;;;;;;;;;;;;;;-140.72;100.00;52748.00;6243739;23;19916;-72
2023/05/31 04:19:22;;;;;;;;;;;;;;;-140.72;100.00;52731.75;6245650;23;19918;-73
2023/05/31 04:21:48;;;;;;;;;;;;;;;-140.72;100.00;52739.88;6226861;23;19994;-72
2023/05/31 04:24:13;;;;;;;;;;;;;;;-140.72;100.00;52723.66;6245733;23;19943;-73
2023/05/31 04:26:38;;;;;;;;;;;;;;;-140.72;100.00;52745.97;6244260;23;19951;-74
2023/05/31 04:29:03;;;;;;;;;;;;;;;-140.72;100.00;52737.84;6218108;23;20229;-73
2023/05/31 04:31:29;;;;;;;;;;;;;;;-140.72;100.00;52756.13;6216830;23;19923;-73
2023/05/31 04:33:56;;;;;;;;;;;;;;;-140.72;100.00;52748.00;6217532;23;19922;-76
2023/05/31 04:36:22;;;;;;;;;;;;;;;-140.72;100.00;52709.44;6245115;22;20255;-73
2023/05/31 04:38:48;;;;;;;;;;;;;;;-140.72;100.00;52754.09;6243510;23;19965;-73
2023/05/31 04:41:15;;;;;;;;;;;;;;;-140.72;100.00;52709.44;6244379;23;19916;-75
2023/05/31 04:43:42;;;;;;;;;;;;;;;-140.72;100.00;52711.47;6247911;23;19970;-72
2023/05/31 04:46:09;;;;;;;;;;;;;;;-140.72;100.00;52737.84;6226047;23;19923;-75
2023/05/31 04:48:34;;;;;;;;;;;;;;;-140.72;100.00;52729.75;6244495;23;20308;-73
2023/05/31 04:51:00;;;;;;;;;;;;;;;-140.72;100.00;52768.28;6243856;23;19950;-74
2023/05/31 04:53:25;;;;;;;;;;;;;;;-140.72;100.00;52743.94;6217000;23;19920;-73
2023/05/31 04:55:51;;;;;;;;;;;;;;;-140.72;100.00;52707.41;6245797;23;19911;-73
2023/05/31 04:58:17;;;;;;;;;;;;;;;-140.72;100.00;52739.88;6218362;23;19919;-73
2023/05/31 05:00:42;;;;;;;;;;;;;;;-140.72;100.00;52743.94;6245141;23;19926;-74
2023/05/31 05:03:07;;;;;;;;;;;;;;;-140.72;100.00;52695.25;6218591;23;19912;-70
2023/05/31 05:05:33;;;;;;;;;;;;;;;-140.72;100.00;52717.56;6244000;23;19916;-72
2023/05/31 05:07:58;;;;;;;;;;;;;;;-140.72;100.00;52683.06;6243623;23;19919;-73
2023/05/31 05:10:23;;;;;;;;;;;;;;;-140.72;100.00;52741.91;6243867;23;19919;-73
2023/05/31 05:12:49;;;;;;;;;;;;;;;-140.72;100.00;52683.06;6244285;23;19911;-75
2023/05/31 05:15:14;;;;;;;;;;;;;;;-140.72;100.00;52674.94;6216565;23;19916;-72
2023/05/31 05:17:41;;;;;;;;;;;;;;;-140.72;100.00;52723.66;6216461;23;19939;-73
2023/05/31 05:20:08;;;;;;;;;;;;;;;-140.72;100.00;52703.34;6244410;23;19915;-73
2023/05/31 05:22:33;;;;;;;;;;;;;;;-140.72;100.00;52715.53;6244470;23;20358;-73
2023/05/31 05:24:58;;;;;;;;;;;;;;;-140.72;100.00;52727.72;6217573;23;19987;-73
2023/05/31 05:27:24;;;;;;;;;;;;;;;-140.72;100.00;52689.16;6243836;23;19915;-72
2023/05/31 05:29:49;;;;;;;;;;;;;;;-140.72;100.00;52711.47;6243770;23;19911;-72
2023/05/31 05:32:15;;;;;;;;;;;;;;;-140.72;100.00;52715.53;6244080;23;19919;-72
2023/05/31 05:34:40;;;;;;;;;;;;;;;-140.72;100.00;52697.28;6244182;23;19919;-72
2023/05/31 05:37:05;;;;;;;;;;;;;;;-140.72;100.00;52650.59;6216871;23;19990;-72
2023/05/31 05:39:30;;;;;;;;;;;;;;;-140.72;100.00;52693.22;6217591;23;19919;-73
2023/05/31 05:41:56;;;;;;;;;;;;;;;-140.72;100.00;52681.03;6243559;23;19934;-73
2023/05/31 05:44:21;;;;;;;;;;;;;;;-140.72;100.00;52691.19;6244668;23;20350;-73
2023/05/31 05:46:46;;;;;;;;;;;;;;;-140.72;100.00;52670.88;6243316;23;19912;-72
2023/05/31 05:49:11;;;;;;;;;;;;;;;-140.72;100.00;52672.91;6243873;23;19919;-72
2023/05/31 05:51:37;;;;;;;;;;;;;;;-140.72;100.00;52687.13;6243870;23;19919;-73
2023/05/31 05:54:03;;;;;;;;;;;;;;;-140.72;100.00;52695.25;6244174;23;19915;-71
2023/05/31 05:56:28;;;;;;;;;;;;;;;-140.72;100.00;52699.31;6243355;23;19986;-72
2023/05/31 05:58:53;;;;;;;;;;;;;;;-140.72;100.00;52666.84;6216640;23;19912;-73
2023/05/31 06:01:19;;;;;;;;;;;;;;;-140.72;100.00;52676.97;6243659;23;19911;-73
2023/05/31 06:03:50;;;;;;;;;;;;;;;-140.72;100.00;52654.66;6216234;23;19965;-72
2023/05/31 06:06:16;;;;;;;;;;;;;;;-140.72;100.00;52666.84;6243790;23;20640;-74
2023/05/31 06:08:42;;;;;;;;;;;;;;;-140.72;100.00;52634.38;6224852;23;20057;-74
2023/05/31 06:11:07;;;;;;;;;;;;;;;-140.72;100.00;52664.81;6226921;23;19915;-74
2023/05/31 06:13:32;;;;;;;;;;;;;;;-140.72;100.00;52660.75;6217593;23;20255;-74
2023/05/31 06:15:57;;;;;;;;;;;;;;;-140.72;100.00;52654.66;6245834;23;19937;-74
2023/05/31 06:18:22;;;;;;;;;;;;;;;-140.72;100.00;52664.81;6220873;23;20252;-74
2023/05/31 06:20:48;;;;;;;;;;;;;;;-140.72;100.00;52642.47;6250449;23;19911;-74
2023/05/31 06:23:13;;;;;;;;;;;;;;;-140.72;100.00;52648.56;6220879;23;19982;-74
2023/05/31 06:25:38;;;;;;;;;;;;;;;-140.72;100.00;52670.88;6246777;23;19918;-74
2023/05/31 06:28:04;;;;;;;;;;;;;;;-140.72;100.00;52605.94;6220260;23;20320;-74
2023/05/31 06:30:29;;;;;;;;;;;;;;;-140.72;100.00;52670.88;6219754;23;19946;-73
2023/05/31 06:32:55;;;;;;;;;;;;;;;-140.72;100.00;52618.13;6219525;23;19911;-74
2023/05/31 06:35:20;;;;;;;;;;;;;;;-140.72;100.00;52676.97;6245507;23;19985;-74
2023/05/31 06:37:46;;;;;;;;;;;;;;;-140.72;100.00;52630.31;6218809;23;20015;-73
2023/05/31 06:40:11;;;;;;;;;;;;;;;-140.72;100.00;52630.31;6219000;23;19957;-74
2023/05/31 06:42:36;;;;;;;;;;;;;;;-140.72;100.00;52660.75;6245857;23;20342;-74
2023/05/31 06:45:02;;;;;;;;;;;;;;;-140.72;100.00;52591.75;6218906;23;19912;-75
2023/05/31 06:47:28;;;;;;;;;;;;;;;-140.72;100.00;52607.97;6195794;23;19915;-76
2023/05/31 06:49:53;;;;;;;;;;;;;;;-140.72;100.00;52636.38;6219949;23;19912;-75
2023/05/31 06:52:19;;;;;;;;;;;;;;;-140.72;100.00;52610.00;6220066;23;19966;-77
2023/05/31 06:54:44;;;;;;;;;;;;;;;-140.72;100.00;52634.38;6218808;23;19915;-74
2023/05/31 06:57:09;;;;;;;;;;;;;;;-140.72;100.00;52601.91;6218646;23;20411;-75
2023/05/31 06:59:35;;;;;;;;;;;;;;;-140.72;100.00;52638.41;6219031;23;19919;-73
2023/05/31 07:02:00;;;;;;;;;;;;;;;-140.72;100.00;52610.00;6218175;23;19912;-73
2023/05/31 07:04:26;;;;;;;;;;;;;;;-140.72;100.00;52599.88;6217666;23;19922;-72
2023/05/31 07:06:51;;;;;;;;;;;;;;;-140.72;100.00;52626.25;6216550;23;20371;-73
2023/05/31 07:09:20;;;;;;;;;;;;;;;-140.72;100.00;52585.66;6216209;23;19994;-72
2023/05/31 07:11:45;;;;;;;;;;;;;;;-140.72;100.00;52577.53;6218116;23;19912;-74
2023/05/31 07:14:12;;;;;;;;;;;;;;;-140.72;100.00;52581.59;6245635;23;20247;-73
2023/05/31 07:16:37;;;;;;;;;;;;;;;-140.72;100.00;52628.28;6245359;23;20257;-73
2023/05/31 07:19:02;;;;;;;;;;;;;;;-140.72;100.00;52571.47;6218490;23;20078;-73
2023/05/31 07:21:27;;;;;;;;;;;;;;;-140.72;100.00;52573.50;6244731;23;20287;-74
2023/05/31 07:23:53;;;;;;;;;;;;;;;-140.72;100.00;52610.00;6245134;23;19958;-74
2023/05/31 07:26:19;;;;;;;;;;;;;;;-140.72;100.00;52545.06;6245359;23;20591;-72
2023/05/31 07:28:45;;;;;;;;;;;;;;;-140.72;100.00;52569.44;6245109;23;19912;-72
2023/05/31 07:31:10;;;;;;;;;;;;;;;-140.72;100.00;52585.66;6218412;23;19938;-73
2023/05/31 07:33:35;;;;;;;;;;;;;;;-140.72;100.00;52581.59;6218574;23;19918;-73
2023/05/31 07:36:01;;;;;;;;;;;;;;;-140.72;100.00;52541.03;6218175;23;19918;-73
2023/05/31 07:38:26;;;;;;;;;;;;;;;-140.72;100.00;52577.53;6218204;23;19911;-73
2023/05/31 07:40:52;;;;;;;;;;;;;;;-140.72;100.00;52536.97;6245788;23;19919;-73
2023/05/31 07:43:21;;;;;;;;;;;;;;;-140.72;100.00;52553.19;6246153;23;20044;-73
2023/05/31 07:45:46;;;;;;;;;;;;;;;-140.72;100.00;52539.00;6252978;23;19912;-73
2023/05/31 07:48:11;;;;;;;;;;;;;;;-140.72;100.00;52536.97;6249854;23;19934;-72
2023/05/31 07:50:37;;;;;;;;;;;;;;;-140.72;100.00;52522.75;6246200;23;19920;-73
2023/05/31 07:53:02;;;;;;;;;;;;;;;-140.72;100.00;52532.91;6245115;23;19920;-73
2023/05/31 07:55:28;;;;;;;;;;;;;;;-140.72;100.00;52528.84;6220369;23;19912;-73
2023/05/31 07:57:53;;;;;;;;;;;;;;;-140.72;100.00;52551.16;6252008;23;19912;-72
2023/05/31 08:00:18;;;;;;;;;;;;;;;-140.72;100.00;52545.06;6219733;23;20651;-71
2023/05/31 08:02:44;;;;;;;;;;;;;;;-140.72;100.00;52516.66;6245757;23;19911;-73
2023/05/31 08:05:09;;;;;;;;;;;;;;;-140.72;100.00;52474.06;6218759;23;19912;-72
2023/05/31 08:07:35;;;;;;;;;;;;;;;-140.72;100.00;52492.31;6218088;23;19912;-73
2023/05/31 08:10:00;;;;;;;;;;;;;;;-140.72;100.00;52524.78;6217512;23;19968;-73
2023/05/31 08:12:26;;;;;;;;;;;;;;;-140.72;97.44;52480.16;6244906;23;19965;-73
2023/05/31 08:14:51;;;;;;;;;;;;;;;-140.72;74.94;52502.47;6217484;23;19969;-73
2023/05/31 08:17:16;;;;;;;;;;;;;;;-140.72;58.34;52474.06;6218014;23;19919;-73
2023/05/31 08:19:41;;;;;;;;;;;;;;;-140.72;46.46;52472.03;6244615;23;19912;-73
2023/05/31 08:22:07;;;;;;;;;;;;;;;-140.72;32.80;52472.03;6217909;23;19912;-73
2023/05/31 08:24:32;;;;;;;;;;;;;;;-140.72;15.02;52480.16;6244300;23;19916;-73
2023/05/31 08:26:58;;;;;;;;;;;;;;;-140.72;0.00;52470.00;6218304;23;20240;-73
2023/05/31 08:29:23;;;;;;;;;;;;;;;-140.72;7.61;52465.94;6218141;23;19911;-72
2023/05/31 08:31:48;;;;;;;;;;;;;;;-140.72;0.00;52427.38;6217791;23;19931;-73
2023/05/31 08:34:14;;;;;;;;;;;;;;;-140.72;0.00;52427.38;6217661;23;20228;-72
2023/05/31 08:36:40;;;;;;;;;;;;;;;-140.72;0.00;52435.50;6217852;23;19916;-72
2023/05/31 08:39:07;;;;;;;;;;;;;;;-140.72;0.00;52396.94;6244645;23;19911;-72
2023/05/31 08:41:35;;;;;;;;;;;;;;;-140.72;0.00;52429.41;6218458;23;20177;-73
2023/05/31 08:44:01;;;;;;;;;;;;;;;-140.72;0.00;52396.94;6245326;23;19911;-72
2023/05/31 08:46:27;;;;;;;;;;;;;;;-140.72;0.00;52378.69;6245034;23;19980;-73
2023/05/31 08:49:08;;;;;;;;;;;;;;;-140.72;0.00;52366.50;6218071;23;19921;-73
2023/05/31 08:51:36;;;;;;;;;;;;;;;-140.72;0.00;52392.88;6245261;23;19911;-72
2023/05/31 08:54:01;;;;;;;;;;;;;;;-140.72;0.00;52368.53;6245459;23;19911;-72
2023/05/31 08:56:27;;;;;;;;;;;;;;;-140.72;0.00;52370.56;6218224;23;19911;-73
2023/05/31 08:58:53;;;;;;;;;;;;;;;-140.72;0.00;52382.75;6244949;23;19923;-73
2023/05/31 09:01:19;;;;;;;;;;;;;;;-140.72;0.00;52380.72;6244838;23;19943;-73
2023/05/31 09:03:45;;;;;;;;;;;;;;;-140.72;0.00;52309.69;6245405;23;20274;-73
2023/05/31 09:06:10;;;;;;;;;;;;;;;-140.72;0.00;52313.75;6217899;23;19915;-73
2023/05/31 09:08:36;;;;;;;;;;;;;;;-140.72;0.00;52334.03;6245023;23;20336;-73
2023/05/31 09:11:01;;;;;;;;;;;;;;;-140.72;0.00;52325.94;6245950;23;19943;-73
2023/05/31 09:13:26;;;;;;;;;;;;;;;-140.72;0.00;52368.53;6245213;23;19981;-73
2023/05/31 09:15:52;;;;;;;;;;;;;;;-140.72;0.00;52295.50;6218995;23;19963;-75
2023/05/31 09:18:25;;;;;;;;;;;;;;;-140.72;0.00;52321.88;6246105;23;19938;-74
2023/05/31 09:20:55;;;;;;;;;;;;;;;-140.72;0.00;52265.06;6246111;23;19912;-74
2023/05/31 09:23:21;;;;;;;;;;;;;;;-140.72;0.00;52258.97;6246471;23;19923;-74
2023/05/31 09:25:47;;;;;;;;;;;;;;;-140.72;0.00;52283.31;6244875;23;19954;-74
2023/05/31 09:28:12;;;;;;;;;;;;;;;-140.72;0.00;52265.06;6244946;23;20255;-74
2023/05/31 09:30:37;;;;;;;;;;;;;;;-140.72;0.00;52228.53;6244692;23;19926;-74
2023/05/31 09:33:03;;;;;;;;;;;;;;;-140.72;0.00;52238.69;6219522;23;19922;-74
2023/05/31 09:35:28;;;;;;;;;;;;;;;-140.72;0.00;52240.72;6218950;23;20379;-75
2023/05/31 09:37:53;;;;;;;;;;;;;;;-140.72;0.00;52200.13;6245401;22;20370;-74
2023/05/31 09:40:29;;;;;;;;;;;;;;;-140.72;0.00;52242.75;6245296;23;19986;-74
2023/05/31 09:42:55;;;;;;;;;;;;;;;-140.72;0.00;52208.25;6219248;23;19915;-74
2023/05/31 09:45:21;;;;;;;;;;;;;;;-140.72;0.00;52232.59;6267438;23;19939;-73
2023/05/31 09:47:47;;;;;;;;;;;;;;;-140.72;0.00;52230.56;6251214;23;20286;-73
2023/05/31 09:50:17;;;;;;;;;;;;;;;-140.72;0.00;52151.44;6218603;23;20343;-74
2023/05/31 09:52:47;;;;;;;;;;;;;;;-140.72;0.00;52179.84;6221319;23;20010;-74
2023/05/31 09:55:13;;;;;;;;;;;;;;;-140.72;0.00;52159.56;6244417;23;19935;-74
2023/05/31 09:57:40;;;;;;;;;;;;;;;-140.72;0.00;52118.97;6244350;23;19912;-74
2023/05/31 10:00:20;;;;;;;;;;;;;;;-140.72;0.00;52131.16;6243886;23;20231;-77
2023/05/31 10:02:49;;;;;;;;;;;;;;;-140.72;0.00;52127.09;6243648;23;19947;-74
2023/05/31 10:05:15;;;;;;;;;;;;;;;-140.72;0.00;52171.72;6216351;23;19961;-74
2023/05/31 10:07:42;;;;;;;;;;;;;;;-140.72;0.00;52133.16;6242718;23;19915;-74
2023/05/31 10:10:08;;;;;;;;;;;;;;;-140.72;0.00;52108.81;6215643;23;19973;-74
2023/05/31 10:12:36;;;;;;;;;;;;;;;-140.72;0.00;52112.88;6215842;23;19928;-75
2023/05/31 10:15:06;;;;;;;;;;;;;;;-140.72;0.00;52062.16;6242630;23;19912;-74
2023/05/31 10:17:45;;;;;;;;;;;;;;;-140.72;0.00;52058.09;6215371;23;20392;-73
2023/05/31 10:20:12;;;;;;;;;;;;;;;-140.72;0.00;52013.47;6217235;23;19982;-73
2023/05/31 10:22:40;;;;;;;;;;;;;;;-140.72;0.00;52054.03;6217443;23;19916;-73
2023/05/31 10:25:10;;;;;;;;;;;;;;;-140.72;0.00;52021.56;6244395;23;19918;-73
2023/05/31 10:27:38;;;;;;;;;;;;;;;-140.72;0.00;52019.56;6244533;23;19919;-73
2023/05/31 10:30:04;;;;;;;;;;;;;;;-140.72;0.00;51985.06;6218042;23;19921;-73
2023/05/31 10:32:32;;;;;;;;;;;;;;;-140.72;0.00;52037.81;6244313;23;19919;-73
2023/05/31 10:34:57;;;;;;;;;;;;;;;-140.72;0.00;51997.22;6216853;23;19934;-73
2023/05/31 10:37:23;;;;;;;;;;;;;;;-140.72;0.00;51997.22;6246372;22;19942;-73
2023/05/31 10:39:55;;;;;;;;;;;;;;;-140.72;0.00;51938.41;6217906;23;19927;-73
2023/05/31 10:42:33;;;;;;;;;;;;;;;-140.72;0.00;51916.06;6218754;23;19912;-73
2023/05/31 10:45:24;;;;;;;;;;;;;;;-140.72;0.00;51893.75;6244798;23;20256;-73
2023/05/31 10:47:52;;;;;;;;;;;;;;;-140.72;0.00;51946.50;6210081;23;19958;-73
2023/05/31 10:50:21;;;;;;;;;;;;;;;-140.72;0.00;51912.03;6216998;23;19911;-73
2023/05/31 10:52:50;;;;;;;;;;;;;;;-140.72;0.00;51883.63;6217461;23;20224;-73
2023/05/31 10:55:22;;;;;;;;;;;;;;;-140.72;0.00;51887.66;6217331;23;19912;-73
2023/05/31 10:57:55;;;;;;;;;;;;;;;-140.72;0.00;51910.00;6244001;23;19920;-73
2023/05/31 11:00:21;;;;;;;;;;;;;;;-140.72;0.00;51897.81;6217654;23;20290;-73
2023/05/31 11:02:47;;;;;;;;;;;;;;;-140.72;0.00;51851.16;6245950;23;19912;-73
2023/05/31 11:05:20;;;;;;;;;;;;;;;-140.72;0.00;51879.56;6246750;23;19915;-73
2023/05/31 11:07:46;;;;;;;;;;;;;;;-140.72;0.00;51879.56;6219353;23;19994;-73
2023/05/31 11:10:23;;;;;;;;;;;;;;;-140.72;0.00;51873.47;6247944;23;19990;-73
2023/05/31 11:12:48;;;;;;;;;;;;;;;-140.72;0.00;51879.56;6246265;23;19923;-76
2023/05/31 11:15:13;;;;;;;;;;;;;;;-140.72;0.00;51814.63;6219358;23;19962;-75
2023/05/31 11:17:41;;;;;;;;;;;;;;;-140.72;0.00;51867.38;6218613;23;19912;-75
2023/05/31 11:20:16;;;;;;;;;;;;;;;-140.72;0.00;51879.56;6218743;23;19911;-75
2023/05/31 11:22:42;;;;;;;;;;;;;;;-140.72;0.00;51830.88;6217640;23;19923;-75
2023/05/31 11:25:17;;;;;;;;;;;;;;;-140.72;0.00;51871.44;6217747;23;20350;-75
2023/05/31 11:27:47;;;;;;;;;;;;;;;-140.72;0.00;51830.88;6253788;23;20073;-74
2023/05/31 11:30:14;;;;;;;;;;;;;;;-140.72;0.00;51810.56;6266481;23;19915;-75
2023/05/31 11:32:40;;;;;;;;;;;;;;;-140.72;0.00;51772.03;6236497;23;19918;-74
2023/05/31 11:35:08;;;;;;;;;;;;;;;-140.72;0.00;51838.97;6248437;23;19912;-74
2023/05/31 11:37:35;;;;;;;;;;;;;;;-140.72;0.00;51843.03;6247564;22;20272;-75
2023/05/31 11:40:11;;;;;;;;;;;;;;;-140.72;0.00;51794.34;6222728;23;19915;-74
2023/05/31 11:42:44;;;;;;;;;;;;;;;-140.72;0.00;51822.75;6218418;23;20003;-74
2023/05/31 11:45:10;;;;;;;;;;;;;;;-140.72;0.00;51774.06;6245655;23;19943;-74
2023/05/31 11:47:39;;;;;;;;;;;;;;;-140.72;0.00;51804.50;6217926;23;20282;-77
2023/05/31 11:50:05;;;;;;;;;;;;;;;-140.72;0.00;51834.91;6245718;23;19982;-74
2023/05/31 11:52:55;;;;;;;;;;;;;;;-140.72;0.00;51830.88;6218570;23;20363;-74
2023/05/31 11:55:20;;;;;;;;;;;;;;;-140.72;0.00;51778.13;6245755;23;19911;-74
2023/05/31 11:57:49;;;;;;;;;;;;;;;-140.72;0.00;51790.28;6218599;23;19978;-74
2023/05/31 12:00:15;;;;;;;;;;;;;;;-140.72;0.00;51767.97;6218729;23;19978;-74
2023/05/31 12:02:46;;;;;;;;;;;;;;;-140.72;0.00;51737.53;6246861;23;20026;-74
2023/05/31 12:05:12;;;;;;;;;;;;;;;-140.72;0.00;51737.53;6218567;23;19930;-74
2023/05/31 12:07:40;;;;;;;;;;;;;;;-140.72;0.00;51723.34;6218702;23;19919;-74
2023/05/31 12:10:05;;;;;;;;;;;;;;;-140.72;0.00;51709.13;6219387;23;19923;-74
2023/05/31 12:12:41;;;;;;;;;;;;;;;-140.72;0.00;51757.81;6244954;23;19912;-74
2023/05/31 12:15:07;;;;;;;;;;;;;;;-140.72;0.00;51709.13;6244728;23;20228;-75
2023/05/31 12:17:32;;;;;;;;;;;;;;;-140.72;0.00;51747.69;6245074;23;19931;-75
2023/05/31 12:19:58;;;;;;;;;;;;;;;-140.72;0.00;51741.59;6218243;23;20342;-75